createdAt,value
2019-02-20T00:02:12.718Z,58.10
2019-02-20T00:04:45.249Z,58.10
2019-02-20T00:07:21.931Z,58.20
2019-02-20T00:09:57.634Z,58.30
2019-02-20T00:12:34.918Z,58.00
2019-02-20T00:15:12.026Z,58.10
2019-02-20T00:17:40.044Z,58.20
2019-02-20T00:20:15.159Z,58.40
2019-02-20T00:22:50.395Z,57.90
2019-02-20T00:25:24.241Z,58.20
2019-02-20T00:27:58.406Z,58.30
2019-02-20T00:30:33.194Z,59.10
2019-02-20T00:33:05.933Z,59.50
2019-02-20T00:35:40.872Z,59.90
2019-02-20T00:38:14.088Z,59.70
2019-02-20T00:40:47.607Z,59.30
2019-02-20T00:43:21.643Z,59.20
2019-02-20T00:46:17.736Z,59.20
2019-02-20T00:48:57.123Z,59.00
2019-02-20T00:51:34.104Z,58.60
2019-02-20T00:54:09.529Z,58.50
2019-02-20T00:56:45.301Z,58.40
2019-02-20T00:59:17.569Z,58.60
2019-02-20T01:01:53.244Z,58.50
2019-02-20T01:04:27.039Z,58.70
2019-02-20T01:06:59.975Z,59.00
2019-02-20T01:09:36.429Z,58.90
2019-02-20T01:12:08.975Z,59.10
2019-02-20T01:14:44.355Z,59.30
2019-02-20T01:17:17.668Z,59.40
2019-02-20T01:19:57.594Z,59.60
2019-02-20T01:22:30.949Z,59.70
2019-02-20T01:25:14.141Z,59.50
2019-02-20T01:27:47.741Z,59.50
2019-02-20T01:30:24.419Z,59.50
2019-02-20T01:32:57.216Z,59.60
2019-02-20T01:35:33.235Z,59.50
2019-02-20T01:38:08.915Z,59.80
2019-02-20T01:40:43.832Z,59.30
2019-02-20T01:43:18.514Z,59.60
2019-02-20T01:45:52.409Z,59.60
2019-02-20T01:48:26.375Z,60.00
2019-02-20T01:51:03.969Z,59.90
2019-02-20T01:53:38.156Z,59.80
2019-02-20T01:56:11.997Z,59.70
2019-02-20T01:58:46.869Z,59.50
2019-02-20T02:01:22.750Z,60.00
2019-02-20T02:03:58.179Z,60.00
2019-02-20T02:06:34.639Z,59.70
2019-02-20T02:09:07.097Z,59.50
2019-02-20T02:11:45.395Z,60.40
2019-02-20T02:14:21.340Z,60.40
2019-02-20T02:16:55.038Z,60.00
2019-02-20T02:19:29.171Z,60.10
2019-02-20T02:22:04.665Z,60.00
2019-02-20T02:24:39.438Z,59.90
2019-02-20T02:27:12.431Z,59.80
2019-02-20T02:29:53.533Z,60.00
2019-02-20T02:32:25.307Z,60.00
2019-02-20T02:35:00.036Z,62.20
2019-02-20T02:37:37.424Z,59.90
2019-02-20T02:40:11.032Z,60.20
2019-02-20T02:42:43.640Z,60.70
2019-02-20T02:45:17.147Z,60.30
2019-02-20T02:47:56.775Z,59.80
2019-02-20T02:50:29.229Z,60.10
2019-02-20T02:53:07.503Z,60.20
2019-02-20T02:55:41.583Z,60.60
2019-02-20T02:58:16.117Z,60.70
2019-02-20T03:00:48.751Z,61.00
2019-02-20T03:03:22.147Z,61.50
2019-02-20T03:05:55.799Z,61.70
2019-02-20T03:08:33.173Z,61.60
2019-02-20T03:11:09.273Z,61.60
2019-02-20T03:13:42.485Z,61.40
2019-02-20T03:16:18.020Z,61.70
2019-02-20T03:18:52.908Z,61.60
2019-02-20T03:21:26.238Z,62.20
2019-02-20T03:24:03.706Z,62.20
2019-02-20T03:26:37.341Z,62.20
2019-02-20T03:29:12.492Z,63.50
2019-02-20T03:31:45.288Z,62.30
2019-02-20T03:34:21.712Z,62.80
2019-02-20T03:36:56.584Z,62.20
2019-02-20T03:39:30.003Z,61.70
2019-02-20T03:42:02.694Z,61.30
2019-02-20T03:44:36.281Z,61.40
2019-02-20T03:47:10.244Z,60.80
2019-02-20T03:49:44.591Z,60.40
2019-02-20T03:52:20.723Z,60.80
2019-02-20T03:54:56.860Z,60.50
2019-02-20T03:57:31.274Z,60.40
2019-02-20T04:00:05.366Z,59.90
2019-02-20T04:02:40.892Z,59.80
2019-02-20T04:05:13.921Z,60.00
2019-02-20T04:07:48.458Z,60.40
2019-02-20T04:10:20.726Z,60.70
2019-02-20T04:12:55.797Z,60.80
2019-02-20T04:15:30.137Z,60.80
2019-02-20T04:18:06.016Z,61.60
2019-02-20T04:20:39.157Z,61.60
2019-02-20T04:23:13.853Z,61.40
2019-02-20T04:25:46.001Z,61.80
2019-02-20T04:28:19.649Z,62.30
2019-02-20T04:30:53.646Z,62.20
2019-02-20T04:33:25.428Z,62.10
2019-02-20T04:36:00.230Z,62.30
2019-02-20T04:38:33.723Z,62.50
2019-02-20T04:41:05.158Z,62.10
2019-02-20T04:43:37.766Z,62.30
2019-02-20T04:46:15.134Z,61.30
2019-02-20T04:48:48.522Z,62.20
2019-02-20T04:51:21.691Z,62.30
2019-02-20T04:53:54.624Z,62.30
2019-02-20T04:56:28.203Z,62.10
2019-02-20T04:59:03.345Z,61.90
2019-02-20T05:01:36.654Z,62.10
2019-02-20T05:04:10.433Z,62.00
2019-02-20T05:06:44.642Z,62.10
2019-02-20T05:09:20.645Z,62.60
2019-02-20T05:11:53.641Z,63.20
2019-02-20T05:14:27.540Z,63.00
2019-02-20T05:16:59.228Z,62.30
2019-02-20T05:19:32.993Z,62.10
2019-02-20T05:22:06.641Z,62.00
2019-02-20T05:24:43.331Z,62.50
2019-02-20T05:27:25.885Z,62.10
2019-02-20T05:30:01.794Z,62.70
2019-02-20T05:32:37.482Z,62.50
2019-02-20T05:35:10.635Z,63.20
2019-02-20T05:37:44.758Z,63.30
2019-02-20T05:40:17.076Z,62.90
2019-02-20T05:42:50.301Z,63.10
2019-02-20T05:45:23.427Z,63.10
2019-02-20T05:50:44.797Z,63.00
2019-02-20T05:53:18.654Z,63.20
2019-02-20T05:55:50.843Z,63.50
2019-02-20T05:58:24.049Z,63.30
2019-02-20T06:00:55.694Z,63.00
2019-02-20T06:03:26.098Z,63.30
2019-02-20T06:06:00.016Z,63.30
2019-02-20T06:08:31.702Z,63.30
2019-02-20T06:11:12.198Z,63.30
2019-02-20T06:13:36.187Z,64.10
2019-02-20T06:16:13.810Z,64.20
2019-02-20T06:18:50.472Z,64.20
2019-02-20T06:21:24.851Z,64.10
2019-02-20T06:23:59.468Z,63.90
2019-02-20T06:26:34.347Z,64.40
2019-02-20T06:29:06.581Z,64.60
2019-02-20T06:31:40.665Z,64.40
2019-02-20T06:34:12.430Z,64.50
2019-02-20T06:36:43.899Z,65.50
2019-02-20T06:39:15.449Z,65.30
2019-02-20T06:41:44.334Z,66.20
2019-02-20T06:44:15.054Z,66.20
2019-02-20T06:46:45.959Z,66.00
2019-02-20T06:49:17.942Z,65.60
2019-02-20T06:51:49.550Z,65.60
2019-02-20T06:54:21.388Z,66.30
2019-02-20T06:56:52.399Z,66.60
2019-02-20T06:59:22.297Z,66.50
2019-02-20T07:01:59.380Z,66.40
2019-02-20T07:04:31.336Z,66.00
2019-02-20T07:07:08.597Z,65.90
2019-02-20T07:09:50.102Z,65.60
2019-02-20T07:12:40.395Z,65.30
2019-02-20T07:15:48.163Z,65.30
2019-02-20T07:18:29.974Z,65.00
2019-02-20T07:21:13.789Z,65.20
2019-02-20T07:24:15.506Z,66.60
2019-02-20T07:27:04.521Z,65.50
2019-02-20T07:29:46.474Z,65.50
2019-02-20T07:32:18.562Z,65.70
2019-02-20T07:34:52.933Z,66.30
2019-02-20T07:37:23.230Z,67.10
2019-02-20T07:39:57.453Z,67.40
2019-02-20T07:42:30.301Z,67.50
2019-02-20T07:45:12.739Z,67.40
2019-02-20T07:47:44.494Z,67.60
2019-02-20T07:50:25.686Z,67.20
2019-02-20T07:52:55.320Z,67.10
2019-02-20T07:55:27.985Z,67.30
2019-02-20T07:57:57.975Z,67.20
2019-02-20T08:00:27.635Z,67.20
2019-02-20T08:03:03.092Z,67.20
2019-02-20T08:05:37.588Z,67.20
2019-02-20T08:08:10.513Z,67.20
2019-02-20T08:10:50.389Z,67.40
2019-02-20T08:13:25.041Z,67.70
2019-02-20T08:15:59.859Z,68.00
2019-02-20T08:18:36.660Z,67.70
2019-02-20T08:21:06.629Z,67.80
2019-02-20T08:23:37.404Z,67.50
2019-02-20T08:26:16.839Z,67.30
2019-02-20T08:28:40.767Z,66.70
2019-02-20T08:31:11.206Z,65.90
2019-02-20T08:33:48.723Z,66.40
2019-02-20T08:36:18.103Z,66.40
2019-02-20T08:38:48.962Z,67.10
2019-02-20T08:41:21.577Z,68.70
2019-02-20T08:43:56.246Z,70.80
2019-02-20T08:46:29.341Z,71.30
2019-02-20T08:49:03.221Z,71.70
2019-02-20T08:51:32.404Z,72.70
2019-02-20T08:54:08.865Z,73.90
2019-02-20T08:56:41.052Z,74.90
2019-02-20T08:59:13.691Z,76.30
2019-02-20T09:01:45.841Z,76.40
2019-02-20T09:04:15.819Z,77.10
2019-02-20T09:06:47.348Z,77.40
2019-02-20T09:09:16.942Z,77.00
2019-02-20T09:11:46.563Z,76.40
2019-02-20T09:14:15.278Z,76.40
2019-02-20T09:16:44.015Z,77.20
2019-02-20T09:19:18.379Z,78.00
2019-02-20T09:21:52.052Z,77.50
2019-02-20T09:24:25.316Z,75.90
2019-02-20T09:27:02.245Z,75.50
2019-02-20T09:29:33.488Z,76.40
2019-02-20T09:32:04.055Z,78.60
2019-02-20T09:34:38.786Z,78.20
2019-02-20T09:37:08.720Z,78.70
2019-02-20T09:39:48.726Z,77.90
2019-02-20T09:42:20.705Z,76.00
2019-02-20T09:44:57.547Z,74.20
2019-02-20T09:47:30.762Z,75.60
2019-02-20T09:50:04.416Z,76.60
2019-02-20T09:52:38.284Z,74.80
2019-02-20T09:55:16.715Z,74.70
2019-02-20T09:57:59.108Z,73.20
2019-02-20T10:00:20.366Z,74.60
2019-02-20T10:02:53.828Z,74.60
2019-02-20T10:05:28.115Z,73.40
2019-02-20T10:08:07.095Z,73.30
2019-02-20T10:10:39.639Z,74.10
2019-02-20T10:13:12.381Z,72.30
2019-02-20T10:15:45.510Z,69.30
2019-02-20T10:18:16.878Z,67.70
2019-02-20T10:20:46.227Z,66.00
2019-02-20T10:23:26.075Z,65.30
2019-02-20T10:26:00.922Z,65.60
2019-02-20T10:28:30.352Z,65.70
2019-02-20T10:31:07.547Z,64.50
2019-02-20T10:33:40.443Z,64.40
2019-02-20T10:36:15.710Z,64.40
2019-02-20T10:38:51.468Z,63.90
2019-02-20T10:41:23.461Z,63.20
2019-02-20T10:44:04.839Z,62.70
2019-02-20T10:46:34.769Z,63.00
2019-02-20T10:49:06.880Z,61.90
2019-02-20T10:51:38.227Z,61.70
2019-02-20T10:54:13.236Z,61.50
2019-02-20T10:56:45.669Z,60.50
2019-02-20T10:59:17.532Z,60.10
2019-02-20T11:01:47.437Z,60.00
2019-02-20T11:04:20.316Z,59.20
2019-02-20T11:13:26.298Z,59.20
2019-02-20T11:15:58.923Z,57.60
2019-02-20T11:18:42.899Z,57.00
2019-02-20T11:21:23.087Z,56.30
2019-02-20T11:23:54.105Z,56.30
2019-02-20T11:26:25.268Z,56.40
2019-02-20T11:29:20.186Z,56.10
2019-02-20T11:31:57.867Z,55.60
2019-02-20T11:34:36.002Z,54.80
2019-02-20T11:37:01.887Z,54.40
2019-02-20T11:39:37.689Z,54.40
2019-02-20T11:42:07.061Z,55.30
2019-02-20T11:44:39.279Z,54.40
2019-02-20T11:47:09.218Z,53.70
2019-02-20T11:49:42.521Z,54.90
2019-02-20T11:52:47.751Z,53.70
2019-02-20T11:55:26.608Z,53.60
2019-02-20T11:58:13.600Z,53.20
2019-02-20T12:00:45.699Z,53.70
2019-02-20T12:03:42.206Z,53.80
2019-02-20T12:06:13.207Z,53.20
2019-02-20T12:08:47.375Z,52.60
2019-02-20T12:11:18.044Z,53.70
2019-02-20T12:13:47.295Z,53.50
2019-02-20T12:16:19.773Z,52.50
2019-02-20T12:18:53.181Z,53.00
2019-02-20T12:21:22.689Z,53.60
2019-02-20T12:24:17.071Z,56.00
2019-02-20T12:26:49.412Z,56.60
2019-02-20T12:29:56.118Z,55.70
2019-02-20T12:32:27.977Z,55.90
2019-02-20T12:35:34.173Z,54.60
2019-02-20T12:38:03.196Z,54.30
2019-02-20T12:40:59.003Z,54.00
2019-02-20T12:43:28.021Z,53.90
2019-02-20T12:46:31.480Z,53.60
2019-02-20T12:49:03.494Z,53.10
2019-02-20T12:52:16.823Z,52.70
2019-02-20T12:54:50.599Z,52.80
2019-02-20T13:11:03.003Z,52.20
2019-02-20T13:13:38.116Z,51.50
2019-02-20T13:19:42.530Z,51.50
2019-02-20T13:23:00.274Z,51.60
2019-02-20T13:25:29.628Z,52.00
2019-02-20T13:27:59.537Z,52.20
2019-02-20T13:30:38.099Z,51.90
2019-02-20T13:33:09.531Z,52.00
2019-02-20T13:36:30.406Z,52.00
2019-02-20T13:39:01.130Z,52.20
2019-02-20T13:42:05.285Z,52.10
2019-02-20T13:44:36.481Z,52.20
2019-02-20T13:47:58.119Z,53.00
2019-02-20T13:50:29.176Z,52.90
2019-02-20T13:53:36.399Z,52.60
2019-02-20T13:56:08.105Z,52.50
2019-02-20T13:59:16.338Z,52.80
2019-02-20T14:01:55.989Z,52.70
2019-02-20T14:05:12.398Z,52.60
2019-02-20T14:07:48.375Z,52.00
2019-02-20T14:17:13.280Z,52.30
2019-02-20T14:19:48.988Z,52.20
2019-02-20T14:22:43.683Z,52.00
2019-02-20T14:25:27.289Z,51.60
2019-02-20T14:28:25.171Z,51.90
2019-02-20T14:33:44.259Z,51.20
2019-02-20T14:36:26.071Z,51.50
2019-02-20T14:39:09.428Z,51.80
2019-02-20T14:41:45.438Z,51.70
2019-02-20T14:47:32.799Z,51.20
2019-02-20T14:50:49.820Z,51.50
2019-02-20T14:53:30.720Z,52.90
2019-02-20T14:56:05.192Z,52.60
2019-02-20T14:58:38.077Z,52.50
2019-02-20T15:01:10.105Z,52.10
2019-02-20T15:03:56.801Z,51.80
2019-02-20T15:06:29.359Z,51.20
2019-02-20T15:09:37.043Z,51.80
2019-02-20T15:12:15.238Z,51.70
2019-02-20T15:15:26.111Z,51.50
2019-02-20T15:18:02.551Z,51.40
2019-02-20T15:29:41.114Z,51.50
2019-02-20T15:32:17.134Z,51.90
2019-02-20T15:34:47.168Z,52.70
2019-02-20T15:44:10.677Z,51.90
2019-02-20T15:46:47.403Z,52.20
2019-02-20T15:49:16.754Z,51.70
2019-02-20T15:51:48.460Z,51.50
2019-02-20T15:54:21.522Z,51.10
2019-02-20T15:57:00.084Z,50.90
2019-02-20T15:59:44.649Z,50.90
2019-02-20T16:02:21.837Z,50.80
2019-02-20T16:05:00.652Z,50.60
2019-02-20T16:07:41.477Z,50.60
2019-02-20T16:10:49.940Z,50.60
2019-02-20T16:13:23.624Z,50.60
2019-02-20T16:16:02.040Z,50.60
2019-02-20T16:18:31.345Z,50.70
2019-02-20T16:21:12.876Z,51.00
2019-02-20T16:23:47.815Z,51.10
2019-02-20T16:27:05.726Z,51.00
2019-02-20T16:29:44.466Z,51.10
2019-02-20T16:32:22.134Z,51.10
2019-02-20T16:34:55.644Z,51.20
2019-02-20T16:38:03.213Z,51.70
2019-02-20T16:40:35.399Z,51.70
2019-02-20T16:43:55.599Z,51.70
2019-02-20T16:46:33.050Z,51.70
2019-02-20T16:49:47.758Z,51.90
2019-02-20T16:52:23.416Z,52.10
2019-02-20T16:55:39.776Z,52.20
2019-02-20T16:58:13.528Z,52.10
2019-02-20T17:04:00.091Z,52.40
2019-02-20T17:06:51.095Z,52.60
2019-02-20T17:11:54.805Z,53.30
2019-02-20T17:15:09.386Z,53.10
2019-02-20T17:17:44.556Z,53.20
2019-02-20T17:20:46.670Z,53.60
2019-02-20T17:23:20.440Z,53.60
2019-02-20T17:33:04.128Z,53.70
2019-02-20T17:35:43.091Z,53.80
2019-02-20T17:39:07.354Z,53.80
2019-02-20T17:41:48.392Z,53.90
2019-02-20T17:44:47.612Z,54.20
2019-02-20T17:50:35.941Z,54.70
2019-02-20T17:53:19.351Z,54.60
2019-02-20T17:59:03.732Z,54.80
2019-02-20T18:04:46.107Z,54.80
2019-02-20T18:07:53.281Z,55.00
2019-02-20T18:10:34.645Z,55.30
2019-02-20T18:13:44.200Z,55.20
2019-02-20T18:16:17.392Z,55.30
2019-02-20T18:19:08.823Z,55.40
2019-02-20T18:21:44.273Z,55.50
2019-02-20T18:24:37.212Z,55.70
2019-02-20T18:27:09.905Z,56.30
2019-02-20T18:30:12.794Z,56.30
2019-02-20T18:32:38.903Z,56.30
2019-02-20T18:35:50.642Z,56.10
2019-02-20T18:38:26.510Z,56.30
2019-02-20T18:41:36.262Z,56.60
2019-02-20T18:44:11.937Z,56.70
2019-02-20T18:46:46.762Z,56.80
2019-02-20T18:49:21.258Z,56.80
2019-02-20T18:51:53.404Z,56.80
2019-02-20T18:54:37.519Z,56.80
2019-02-20T18:57:23.097Z,56.80
2019-02-20T19:00:16.007Z,56.70
2019-02-20T19:02:53.101Z,56.60
2019-02-20T19:05:33.646Z,58.00
2019-02-20T19:08:26.651Z,59.10
2019-02-20T19:11:07.667Z,57.80
2019-02-20T19:13:57.348Z,59.20
2019-02-20T19:16:53.154Z,57.90
2019-02-20T19:19:45.173Z,58.20
2019-02-20T19:22:44.281Z,58.20
2019-02-20T19:25:45.891Z,58.60
2019-02-20T19:28:44.099Z,59.00
2019-02-20T19:31:21.808Z,59.20
2019-02-20T19:40:52.307Z,59.10
2019-02-20T19:43:35.737Z,59.00
2019-02-20T19:46:11.751Z,59.00
2019-02-20T19:49:07.996Z,58.90
2019-02-20T19:51:48.903Z,59.40
2019-02-20T19:54:33.009Z,59.00
2019-02-20T19:57:20.104Z,59.20
2019-02-20T20:00:32.700Z,59.10
2019-02-20T20:03:13.724Z,59.10
2019-02-20T20:06:37.163Z,59.20
2019-02-20T20:09:44.718Z,59.10
2019-02-20T20:13:07.567Z,59.30
2019-02-20T20:16:11.172Z,59.40
2019-02-20T20:19:15.099Z,59.50
2019-02-20T20:22:14.313Z,59.60
2019-02-20T20:25:34.244Z,59.80
2019-02-20T20:28:23.606Z,59.60
2019-02-20T20:34:26.367Z,60.60
2019-02-20T20:37:24.896Z,60.40
2019-02-20T20:40:08.200Z,60.30
2019-02-20T20:43:20.265Z,60.30
2019-02-20T20:46:16.144Z,60.50
2019-02-20T20:49:17.694Z,60.60
2019-02-20T20:52:10.348Z,60.40
2019-02-20T20:55:15.101Z,60.60
2019-02-20T20:57:58.115Z,60.40
2019-02-20T21:01:00.524Z,60.60
2019-02-20T21:03:43.518Z,60.50
2019-02-20T21:07:04.130Z,60.80
2019-02-20T21:09:53.913Z,60.80
2019-02-20T21:13:00.224Z,60.60
2019-02-20T21:15:47.156Z,61.10
2019-02-20T21:18:43.221Z,61.40
2019-02-20T21:21:42.477Z,61.10
2019-02-20T21:24:52.298Z,60.90
2019-02-20T21:27:53.586Z,61.30
2019-02-20T21:30:46.306Z,62.00
2019-02-20T21:33:35.263Z,61.60
2019-02-20T21:36:49.368Z,61.60
2019-02-20T21:39:41.512Z,61.90
2019-02-20T21:42:43.872Z,63.00
2019-02-20T21:45:35.237Z,62.80
2019-02-20T21:48:25.033Z,61.70
2019-02-20T21:51:38.410Z,61.70
2019-02-20T21:54:18.101Z,61.90
2019-02-20T21:56:55.958Z,62.50
2019-02-20T21:59:48.229Z,62.30
2019-02-20T22:02:22.325Z,61.90
2019-02-20T22:05:12.293Z,61.60
2019-02-20T22:08:08.743Z,62.00
2019-02-20T22:11:16.592Z,62.60
2019-02-20T22:14:22.293Z,62.50
2019-02-20T22:17:11.812Z,62.70
2019-02-20T22:20:01.223Z,63.00
2019-02-20T22:22:54.642Z,62.90
2019-02-20T22:25:37.735Z,63.40
2019-02-20T22:28:49.150Z,62.90
2019-02-20T22:31:45.773Z,62.10
2019-02-20T22:34:32.832Z,62.50
2019-02-20T22:37:22.601Z,62.30
2019-02-20T22:40:13.535Z,62.50
2019-02-20T22:42:53.861Z,63.10
2019-02-20T22:46:02.471Z,63.40
2019-02-20T22:48:56.378Z,63.20
2019-02-20T22:51:56.261Z,63.10
2019-02-20T22:54:43.659Z,62.90
2019-02-20T22:57:33.647Z,63.70
2019-02-20T23:00:34.289Z,63.80
2019-02-20T23:03:45.592Z,63.00
2019-02-20T23:06:28.997Z,63.50
2019-02-20T23:09:55.200Z,61.60
2019-02-20T23:12:43.113Z,63.40
2019-02-20T23:15:53.342Z,62.70
2019-02-20T23:18:26.741Z,63.60
2019-02-20T23:21:02.697Z,63.50
2019-02-20T23:23:35.971Z,63.50
2019-02-20T23:26:10.131Z,63.90
2019-02-20T23:29:09.207Z,63.50
2019-02-20T23:31:42.455Z,63.50
2019-02-20T23:34:52.069Z,63.90
2019-02-20T23:37:24.524Z,64.30
2019-02-20T23:40:04.657Z,64.40
2019-02-20T23:42:42.474Z,64.00
2019-02-20T23:45:15.488Z,63.50
2019-02-20T23:47:49.231Z,63.50
2019-02-20T23:50:21.985Z,63.90
2019-02-20T23:52:55.220Z,64.00
2019-02-20T23:55:28.566Z,64.70
2019-02-20T23:58:03.326Z,65.10
